Alden, Wisconsin
Current Conditions -  °F | °C
As of 10:55 AM on Friday 28 Nov 2014 (Local Time) from KRNH Reporting Station
Overcast Overcast  
Wind Chill:   Ceiling: 2300
Heat Index: 17°   Visibility: 10mi
Dew Point: 11°   Wind: 5mph
Humidity: 77%   Direction: 120°ESE
Pressure: 29.98"   Gusts: NA
Location:  45.1804°N, 92.551°W
Report Text: KRNH 281655Z AUTO 12004KT 10SM OVC023 M09/M12 A2998 RMK AO2 T10861119
Loading
Personal Weather Stations






























Interactive Weather Map New forecast layout! Learn more

10-Day Weather Forecast

Advertisements
Track Severe Weather on mobile